createdAt,value
2016-07-05T00:00:24.170Z,956.76
2016-07-05T00:01:24.206Z,956.76
2016-07-05T00:02:24.257Z,956.79
2016-07-05T00:03:24.160Z,956.77
2016-07-05T00:04:24.158Z,956.71
2016-07-05T00:05:24.372Z,956.75
2016-07-05T00:06:24.164Z,956.71
2016-07-05T00:07:24.155Z,956.68
2016-07-05T00:08:24.165Z,956.69
2016-07-05T00:09:24.160Z,956.67
2016-07-05T00:10:24.274Z,956.69
2016-07-05T00:11:24.164Z,956.65
2016-07-05T00:12:24.167Z,956.62
2016-07-05T00:13:24.356Z,956.59
2016-07-05T00:14:24.173Z,956.59
2016-07-05T00:15:24.173Z,956.58
2016-07-05T00:16:24.177Z,956.58
2016-07-05T00:17:24.404Z,956.59
2016-07-05T00:18:24.210Z,956.6
2016-07-05T00:19:24.390Z,956.58
2016-07-05T00:20:24.369Z,956.59
2016-07-05T00:21:24.249Z,956.56
2016-07-05T00:22:24.250Z,956.54
2016-07-05T00:23:24.258Z,956.51
2016-07-05T00:24:24.252Z,956.48
2016-07-05T00:25:24.249Z,956.48
2016-07-05T00:26:24.254Z,956.45
2016-07-05T00:27:24.461Z,956.43
2016-07-05T00:28:24.249Z,956.42
2016-07-05T00:29:24.264Z,956.41
2016-07-05T00:30:24.260Z,956.37
2016-07-05T00:31:24.438Z,956.33
2016-07-05T00:32:24.296Z,956.35
2016-07-05T00:33:24.472Z,956.34
2016-07-05T00:34:24.473Z,956.31
2016-07-05T00:35:24.326Z,956.34
2016-07-05T00:36:24.326Z,956.29
2016-07-05T00:37:24.434Z,956.33
2016-07-05T00:38:24.356Z,956.31
2016-07-05T00:39:24.355Z,956.32
2016-07-05T00:40:24.357Z,956.3
2016-07-05T00:41:24.399Z,956.27
2016-07-05T00:42:24.390Z,956.29
2016-07-05T00:43:24.387Z,956.25
2016-07-05T00:44:24.391Z,956.2
2016-07-05T00:45:24.413Z,956.22
2016-07-05T00:46:24.387Z,956.21
2016-07-05T00:47:24.371Z,956.18
2016-07-05T00:48:24.370Z,956.16
2016-07-05T00:49:24.369Z,956.12
2016-07-05T00:50:24.365Z,956.16
2016-07-05T00:51:24.477Z,956.15
2016-07-05T00:52:24.461Z,956.1
2016-07-05T00:53:24.451Z,956.12
2016-07-05T00:54:24.452Z,956.1
2016-07-05T00:55:24.352Z,956.09
2016-07-05T00:56:24.342Z,956.07
2016-07-05T00:57:24.435Z,956.02
2016-07-05T00:58:24.521Z,956.01
2016-07-05T00:59:24.514Z,956
2016-07-05T01:00:24.437Z,955.98
2016-07-05T01:01:24.563Z,955.96
2016-07-05T01:02:24.506Z,955.94
2016-07-05T01:03:24.321Z,955.88
2016-07-05T01:04:24.423Z,955.89
2016-07-05T01:05:24.419Z,955.88
2016-07-05T01:06:24.320Z,955.87
2016-07-05T01:07:24.302Z,955.85
2016-07-05T01:08:24.304Z,955.9
2016-07-05T01:09:24.297Z,955.87
2016-07-05T01:10:24.486Z,955.87
2016-07-05T01:11:24.288Z,955.87
2016-07-05T01:12:24.284Z,955.85
2016-07-05T01:13:24.530Z,955.83
2016-07-05T01:14:24.288Z,955.83
2016-07-05T01:15:24.268Z,955.78
2016-07-05T01:16:24.273Z,955.82
2016-07-05T01:17:24.265Z,955.76
2016-07-05T01:18:24.453Z,955.79
2016-07-05T01:19:24.364Z,955.76
2016-07-05T01:20:24.449Z,955.78
2016-07-05T01:21:24.256Z,955.77
2016-07-05T01:22:24.259Z,955.76
2016-07-05T01:23:24.348Z,955.71
2016-07-05T01:24:24.421Z,955.71
2016-07-05T01:25:24.339Z,955.72
2016-07-05T01:26:24.232Z,955.66
2016-07-05T01:27:24.225Z,955.68
2016-07-05T01:28:24.224Z,955.69
2016-07-05T01:29:24.333Z,955.69
2016-07-05T01:30:24.222Z,955.64
2016-07-05T01:31:24.316Z,955.65
2016-07-05T01:32:24.211Z,955.65
2016-07-05T01:33:24.216Z,955.62
2016-07-05T01:34:24.204Z,955.61
2016-07-05T01:35:24.207Z,955.57
2016-07-05T01:36:24.194Z,955.58
2016-07-05T01:37:24.190Z,955.58
2016-07-05T01:38:24.187Z,955.56
2016-07-05T01:39:24.177Z,955.5
2016-07-05T01:40:24.187Z,955.5
2016-07-05T01:41:24.191Z,955.47
2016-07-05T01:42:24.360Z,955.41
2016-07-05T01:43:24.185Z,955.44
2016-07-05T01:44:24.357Z,955.43
2016-07-05T01:45:24.164Z,955.42
2016-07-05T01:46:24.160Z,955.42
2016-07-05T01:47:24.155Z,955.41
2016-07-05T01:48:24.353Z,955.39
2016-07-05T01:49:24.262Z,955.34
2016-07-05T01:50:24.161Z,955.37
2016-07-05T01:51:24.142Z,955.36
2016-07-05T01:52:24.138Z,955.35
2016-07-05T01:53:24.137Z,955.34
2016-07-05T01:54:24.355Z,955.35
2016-07-05T01:55:24.321Z,955.3
2016-07-05T01:56:24.127Z,955.29
2016-07-05T01:57:24.115Z,955.26
2016-07-05T01:58:24.116Z,955.26
2016-07-05T01:59:24.111Z,955.24
2016-07-05T02:00:24.110Z,955.16
2016-07-05T02:01:24.098Z,955.18
2016-07-05T02:02:24.168Z,955.14
2016-07-05T02:03:24.166Z,955.16
2016-07-05T02:04:24.159Z,955.1
2016-07-05T02:05:24.149Z,955.09
2016-07-05T02:06:24.093Z,955.12
2016-07-05T02:07:24.130Z,955.09
2016-07-05T02:08:24.139Z,955.02
2016-07-05T02:09:24.087Z,955.04
2016-07-05T02:10:24.081Z,955.05
2016-07-05T02:11:24.070Z,954.97
2016-07-05T02:12:24.069Z,955
2016-07-05T02:13:24.068Z,954.95
2016-07-05T02:14:24.060Z,954.92
2016-07-05T02:15:24.243Z,954.91
2016-07-05T02:16:24.056Z,954.89
2016-07-05T02:17:24.054Z,954.87
2016-07-05T02:18:24.050Z,954.86
2016-07-05T02:19:24.055Z,954.85
2016-07-05T02:20:24.230Z,954.87
2016-07-05T02:21:24.034Z,954.85
2016-07-05T02:22:24.033Z,954.84
2016-07-05T02:23:24.026Z,954.86
2016-07-05T02:24:24.122Z,954.88
2016-07-05T02:25:24.023Z,954.82
2016-07-05T02:26:24.022Z,954.84
2016-07-05T02:27:24.015Z,954.83
2016-07-05T02:28:24.019Z,954.77
2016-07-05T02:29:24.013Z,954.81
2016-07-05T02:30:24.193Z,954.82
2016-07-05T02:31:23.996Z,954.74
2016-07-05T02:32:24.002Z,954.77
2016-07-05T02:33:23.995Z,954.77
2016-07-05T02:34:23.994Z,954.77
2016-07-05T02:35:23.985Z,954.75
2016-07-05T02:36:24.087Z,954.79
2016-07-05T02:37:23.978Z,954.71
2016-07-05T02:38:24.079Z,954.7
2016-07-05T02:39:23.964Z,954.71
2016-07-05T02:40:23.979Z,954.71
2016-07-05T02:41:23.967Z,954.71
2016-07-05T02:42:23.966Z,954.71
2016-07-05T02:43:24.147Z,954.7
2016-07-05T02:44:23.959Z,954.69
2016-07-05T02:45:24.163Z,954.68
2016-07-05T02:46:23.956Z,954.65
2016-07-05T02:47:24.045Z,954.68
2016-07-05T02:48:24.050Z,954.63
2016-07-05T02:49:23.950Z,954.63
2016-07-05T02:50:23.941Z,954.68
2016-07-05T02:51:24.159Z,954.67
2016-07-05T02:52:23.931Z,954.63
2016-07-05T02:53:24.106Z,954.64
2016-07-05T02:54:23.923Z,954.65
2016-07-05T02:55:23.925Z,954.65
2016-07-05T02:56:23.920Z,954.66
2016-07-05T02:57:23.930Z,954.64
2016-07-05T02:58:23.913Z,954.71
2016-07-05T02:59:24.006Z,954.67
2016-07-05T03:00:24.092Z,954.65
2016-07-05T03:01:23.901Z,954.63
2016-07-05T03:02:23.892Z,954.65
2016-07-05T03:03:24.082Z,954.65
2016-07-05T03:04:24.086Z,954.62
2016-07-05T03:05:23.885Z,954.63
2016-07-05T03:06:23.886Z,954.59
2016-07-05T03:07:23.889Z,954.55
2016-07-05T03:08:24.066Z,954.58
2016-07-05T03:09:23.972Z,954.54
2016-07-05T03:10:23.988Z,954.56
2016-07-05T03:11:24.063Z,954.58
2016-07-05T03:12:23.864Z,954.54
2016-07-05T03:13:23.864Z,954.56
2016-07-05T03:14:24.054Z,954.61
2016-07-05T03:15:24.201Z,954.58
2016-07-05T03:16:23.857Z,954.58
2016-07-05T03:17:23.941Z,954.59
2016-07-05T03:18:23.847Z,954.57
2016-07-05T03:19:23.839Z,954.64
2016-07-05T03:20:23.840Z,954.6
2016-07-05T03:21:23.847Z,954.61
2016-07-05T03:22:23.836Z,954.6
2016-07-05T03:23:23.822Z,954.54
2016-07-05T03:24:23.838Z,954.6
2016-07-05T03:25:23.820Z,954.57
2016-07-05T03:26:23.826Z,954.6
2016-07-05T03:27:23.811Z,954.58
2016-07-05T03:28:23.828Z,954.58
2016-07-05T03:29:23.822Z,954.58
2016-07-05T03:30:23.821Z,954.63
2016-07-05T03:31:24.030Z,954.6
2016-07-05T03:32:23.803Z,954.6
2016-07-05T03:33:23.803Z,954.58
2016-07-05T03:34:23.790Z,954.6
2016-07-05T03:35:23.792Z,954.62
2016-07-05T03:36:23.784Z,954.6
2016-07-05T03:37:23.785Z,954.63
2016-07-05T03:38:23.780Z,954.64
2016-07-05T03:39:23.770Z,954.62
2016-07-05T03:40:23.774Z,954.63
2016-07-05T03:41:23.766Z,954.62
2016-07-05T03:42:23.766Z,954.58
2016-07-05T03:43:23.760Z,954.61
2016-07-05T03:44:23.756Z,954.62
2016-07-05T03:45:23.761Z,954.59
2016-07-05T03:46:23.768Z,954.6
2016-07-05T03:47:23.753Z,954.63
2016-07-05T03:48:23.758Z,954.61
2016-07-05T03:49:23.759Z,954.6
2016-07-05T03:50:23.868Z,954.6
2016-07-05T03:51:23.879Z,954.6
2016-07-05T03:52:23.724Z,954.59
2016-07-05T03:53:23.729Z,954.6
2016-07-05T03:54:23.734Z,954.56
2016-07-05T03:55:23.920Z,954.59
2016-07-05T03:56:23.731Z,954.55
2016-07-05T03:57:23.727Z,954.6
2016-07-05T03:58:23.722Z,954.57
2016-07-05T03:59:23.735Z,954.57
2016-07-05T04:00:23.733Z,954.48
2016-07-05T04:01:23.728Z,954.48
2016-07-05T04:02:23.712Z,954.46
2016-07-05T04:03:23.902Z,954.48
2016-07-05T04:04:23.697Z,954.51
2016-07-05T04:05:23.696Z,954.52
2016-07-05T04:06:23.683Z,954.52
2016-07-05T04:07:23.679Z,954.52
2016-07-05T04:08:23.678Z,954.51
2016-07-05T04:09:23.680Z,954.49
2016-07-05T04:10:23.680Z,954.51
2016-07-05T04:11:23.670Z,954.48
2016-07-05T04:12:23.662Z,954.44
2016-07-05T04:13:23.667Z,954.45
2016-07-05T04:14:23.666Z,954.47
2016-07-05T04:15:23.666Z,954.47
2016-07-05T04:16:23.654Z,954.47
2016-07-05T04:17:23.646Z,954.48
2016-07-05T04:18:23.854Z,954.52
2016-07-05T04:19:23.640Z,954.45
2016-07-05T04:20:23.852Z,954.44
2016-07-05T04:21:23.641Z,954.48
2016-07-05T04:22:23.636Z,954.52
2016-07-05T04:23:23.639Z,954.47
2016-07-05T04:24:23.632Z,954.45
2016-07-05T04:25:23.809Z,954.49
2016-07-05T04:26:23.620Z,954.49
2016-07-05T04:27:23.622Z,954.49
2016-07-05T04:28:23.620Z,954.48
2016-07-05T04:29:23.615Z,954.45
2016-07-05T04:30:23.947Z,954.54
2016-07-05T04:31:23.612Z,954.51
2016-07-05T04:32:23.602Z,954.48
2016-07-05T04:33:23.608Z,954.5
2016-07-05T04:34:23.608Z,954.49
2016-07-05T04:35:23.694Z,954.49
2016-07-05T04:36:23.598Z,954.5
2016-07-05T04:37:23.593Z,954.47
2016-07-05T04:38:23.591Z,954.43
2016-07-05T04:39:23.582Z,954.46
2016-07-05T04:40:23.578Z,954.46
2016-07-05T04:41:23.584Z,954.44
2016-07-05T04:42:23.576Z,954.44
2016-07-05T04:43:23.588Z,954.45
2016-07-05T04:44:23.574Z,954.42
2016-07-05T04:45:23.563Z,954.46
2016-07-05T04:46:23.566Z,954.52
2016-07-05T04:47:23.569Z,954.5
2016-07-05T04:48:23.561Z,954.49
2016-07-05T04:49:23.557Z,954.48
2016-07-05T04:50:23.553Z,954.49
2016-07-05T04:51:23.552Z,954.49
2016-07-05T04:52:23.737Z,954.47
2016-07-05T04:53:23.644Z,954.5
2016-07-05T04:54:23.676Z,954.44
2016-07-05T04:55:23.536Z,954.48
2016-07-05T04:56:23.537Z,954.55
2016-07-05T04:57:23.533Z,954.53
2016-07-05T04:58:23.533Z,954.5
2016-07-05T04:59:23.531Z,954.49
2016-07-05T05:00:23.524Z,954.48
2016-07-05T05:01:23.529Z,954.51
2016-07-05T05:02:23.527Z,954.46
2016-07-05T05:03:23.526Z,954.45
2016-07-05T05:04:23.550Z,954.43
2016-07-05T05:05:23.518Z,954.47
2016-07-05T05:06:23.518Z,954.4
2016-07-05T05:07:23.506Z,954.46
2016-07-05T05:08:23.508Z,954.48
2016-07-05T05:09:23.500Z,954.46
2016-07-05T05:10:23.505Z,954.42
2016-07-05T05:11:23.684Z,954.43
2016-07-05T05:12:23.682Z,954.48
2016-07-05T05:13:23.510Z,954.49
2016-07-05T05:14:23.503Z,954.5
2016-07-05T05:15:23.594Z,954.51
2016-07-05T05:16:23.494Z,954.42
2016-07-05T05:17:23.486Z,954.43
2016-07-05T05:18:23.597Z,954.38
2016-07-05T05:19:23.583Z,954.38
2016-07-05T05:20:23.476Z,954.34
2016-07-05T05:21:23.483Z,954.37
2016-07-05T05:22:23.611Z,954.37
2016-07-05T05:23:23.586Z,954.32
2016-07-05T05:24:23.475Z,954.33
2016-07-05T05:25:23.466Z,954.3
2016-07-05T05:26:23.473Z,954.33
2016-07-05T05:27:23.462Z,954.28
2016-07-05T05:28:23.461Z,954.27
2016-07-05T05:29:23.646Z,954.28
2016-07-05T05:30:23.560Z,954.32
2016-07-05T05:31:23.571Z,954.29
2016-07-05T05:32:23.446Z,954.29
2016-07-05T05:33:23.565Z,954.32
2016-07-05T05:34:23.456Z,954.27
2016-07-05T05:35:23.454Z,954.33
2016-07-05T05:36:23.456Z,954.3
2016-07-05T05:37:23.568Z,954.3
2016-07-05T05:38:23.647Z,954.34
2016-07-05T05:39:23.446Z,954.34
2016-07-05T05:40:23.556Z,954.27
2016-07-05T05:41:23.439Z,954.34
2016-07-05T05:42:23.537Z,954.3
2016-07-05T05:43:23.436Z,954.3
2016-07-05T05:44:23.452Z,954.34
2016-07-05T05:45:23.553Z,954.35
2016-07-05T05:46:23.434Z,954.32
2016-07-05T05:47:23.536Z,954.36
2016-07-05T05:48:23.549Z,954.28
2016-07-05T05:49:23.558Z,954.28
2016-07-05T05:50:23.624Z,954.28
2016-07-05T05:51:23.531Z,954.26
2016-07-05T05:52:23.525Z,954.24
2016-07-05T05:53:23.429Z,954.26
2016-07-05T05:54:23.427Z,954.18
2016-07-05T05:55:23.615Z,954.19
2016-07-05T05:56:23.436Z,954.19
2016-07-05T05:57:23.429Z,954.21
2016-07-05T05:58:23.606Z,954.2
2016-07-05T05:59:23.540Z,954.2
2016-07-05T06:00:23.428Z,954.21
2016-07-05T06:01:23.433Z,954.16
2016-07-05T06:02:23.430Z,954.22
2016-07-05T06:03:23.417Z,954.2
2016-07-05T06:04:23.419Z,954.19
2016-07-05T06:05:23.425Z,954.23
2016-07-05T06:06:23.420Z,954.18
2016-07-05T06:07:23.426Z,954.27
2016-07-05T06:08:23.514Z,954.24
2016-07-05T06:09:23.420Z,954.21
2016-07-05T06:10:23.515Z,954.22
2016-07-05T06:11:23.548Z,954.21
2016-07-05T06:12:23.528Z,954.18
2016-07-05T06:13:23.416Z,954.2
2016-07-05T06:14:23.605Z,954.18
2016-07-05T06:15:23.419Z,954.19
2016-07-05T06:16:23.413Z,954.17
2016-07-05T06:17:23.409Z,954.15
2016-07-05T06:18:23.419Z,954.1
2016-07-05T06:19:23.413Z,954.1
2016-07-05T06:20:23.408Z,954.13
2016-07-05T06:21:23.513Z,954.11
2016-07-05T06:22:23.598Z,954.16
2016-07-05T06:23:23.512Z,954.08
2016-07-05T06:24:23.508Z,954.08
2016-07-05T06:25:23.412Z,954.08
2016-07-05T06:26:23.406Z,954.03
2016-07-05T06:27:23.518Z,954
2016-07-05T06:28:23.590Z,954.06
2016-07-05T06:29:23.515Z,954
2016-07-05T06:30:23.530Z,953.97
2016-07-05T06:31:23.501Z,954.02
2016-07-05T06:32:23.410Z,953.99
2016-07-05T06:33:23.633Z,953.96
2016-07-05T06:34:23.510Z,953.98
2016-07-05T06:35:23.410Z,953.91
2016-07-05T06:36:23.396Z,953.93
2016-07-05T06:37:23.527Z,953.86
2016-07-05T06:38:23.502Z,953.82
2016-07-05T06:39:23.398Z,953.94
2016-07-05T06:40:23.584Z,954
2016-07-05T06:41:23.502Z,954.03
2016-07-05T06:42:23.592Z,954.04
2016-07-05T06:43:23.581Z,954.01
2016-07-05T06:44:23.490Z,954.03
2016-07-05T06:45:23.400Z,954.04
2016-07-05T06:46:23.396Z,954.04
2016-07-05T06:47:23.394Z,953.92
2016-07-05T06:48:23.497Z,954.06
2016-07-05T06:49:23.395Z,954
2016-07-05T06:50:23.586Z,954.11
2016-07-05T06:51:23.505Z,954.1
2016-07-05T06:52:23.491Z,954.06
2016-07-05T06:53:23.407Z,954.03
2016-07-05T06:54:23.494Z,954.15
2016-07-05T06:55:23.586Z,954.06
2016-07-05T06:56:23.396Z,954.11
2016-07-05T06:57:23.393Z,954.08
2016-07-05T06:58:23.510Z,954.11
2016-07-05T06:59:23.585Z,954.11
2016-07-05T07:00:23.585Z,954.07
2016-07-05T07:01:23.497Z,954.08
2016-07-05T07:02:23.491Z,954.15
2016-07-05T07:03:23.396Z,954.02
2016-07-05T07:04:23.395Z,954
2016-07-05T07:05:23.515Z,954.01
2016-07-05T07:06:23.403Z,954.03
2016-07-05T07:07:23.508Z,953.99
2016-07-05T07:08:23.521Z,954.02
2016-07-05T07:09:23.511Z,954.03
2016-07-05T07:10:23.510Z,954
2016-07-05T07:11:23.412Z,954
2016-07-05T07:12:23.417Z,954.04
2016-07-05T07:13:23.514Z,954.05
2016-07-05T07:14:23.518Z,954.05
2016-07-05T07:15:23.609Z,954.05
2016-07-05T07:16:23.424Z,954.02
2016-07-05T07:17:23.611Z,954.04
2016-07-05T07:18:23.610Z,954
2016-07-05T07:19:23.534Z,954.01
2016-07-05T07:20:23.519Z,954.02
2016-07-05T07:21:23.520Z,953.99
2016-07-05T07:22:23.417Z,953.98
2016-07-05T07:23:23.522Z,953.92
2016-07-05T07:24:23.522Z,954.01
2016-07-05T07:25:23.616Z,953.97
2016-07-05T07:26:23.430Z,953.98
2016-07-05T07:27:23.618Z,953.96
2016-07-05T07:28:23.615Z,954.01
2016-07-05T07:29:23.438Z,954
2016-07-05T07:30:23.430Z,954.05
2016-07-05T07:31:23.427Z,953.99
2016-07-05T07:32:23.534Z,954.02
2016-07-05T07:33:23.615Z,953.99
2016-07-05T07:34:23.529Z,954.02
2016-07-05T07:35:23.547Z,953.99
2016-07-05T07:36:23.438Z,953.99
2016-07-05T07:37:23.439Z,954
2016-07-05T07:38:23.548Z,954.17
2016-07-05T07:39:23.437Z,954.03
2016-07-05T07:40:23.546Z,954.1
2016-07-05T07:41:23.449Z,953.97
2016-07-05T07:42:23.567Z,954.12
2016-07-05T07:43:23.552Z,954.09
2016-07-05T07:44:23.639Z,954.07
2016-07-05T07:45:23.551Z,954.13
2016-07-05T07:46:23.454Z,954.01
2016-07-05T07:47:23.658Z,953.99
2016-07-05T07:48:23.561Z,954.06
2016-07-05T07:49:23.457Z,954.07
2016-07-05T07:50:23.661Z,954.05
2016-07-05T07:51:23.562Z,954.08
2016-07-05T07:52:23.592Z,954.1
2016-07-05T07:53:23.575Z,954.05
2016-07-05T07:54:23.487Z,954.08
2016-07-05T07:55:23.582Z,954.04
2016-07-05T07:56:23.492Z,954.08
2016-07-05T07:57:23.681Z,954.08
2016-07-05T07:58:23.592Z,954.07
2016-07-05T07:59:23.604Z,954.12
2016-07-05T08:00:23.606Z,954.09
2016-07-05T08:01:23.515Z,953.96
2016-07-05T08:02:23.700Z,954.04
2016-07-05T08:03:23.710Z,954
2016-07-05T08:04:23.536Z,954.01
2016-07-05T08:05:23.637Z,954.03
2016-07-05T08:06:23.547Z,953.99
2016-07-05T08:07:23.653Z,953.98
2016-07-05T08:08:23.564Z,953.97
2016-07-05T08:09:23.672Z,953.94
2016-07-05T08:10:23.682Z,953.97
2016-07-05T08:11:23.694Z,953.94
2016-07-05T08:12:23.590Z,954.02
2016-07-05T08:13:23.697Z,953.89
2016-07-05T08:14:23.799Z,953.93
2016-07-05T08:15:23.802Z,953.81
2016-07-05T08:16:23.626Z,953.86
2016-07-05T08:17:23.750Z,953.83
2016-07-05T08:18:23.630Z,953.81
2016-07-05T08:19:23.651Z,953.76
2016-07-05T08:20:23.666Z,953.76
2016-07-05T08:21:23.859Z,953.82
2016-07-05T08:22:23.926Z,953.78
2016-07-05T08:23:23.761Z,953.76
2016-07-05T08:25:23.908Z,953.8
2016-07-05T08:26:23.734Z,953.83
2016-07-05T08:27:23.953Z,953.76
2016-07-05T08:28:23.730Z,953.78
2016-07-05T08:29:23.784Z,953.74
2016-07-05T08:30:23.862Z,953.85
2016-07-05T08:31:23.780Z,953.9
2016-07-05T08:32:23.891Z,953.78
2016-07-05T08:33:23.771Z,953.88
2016-07-05T08:34:23.894Z,953.88
2016-07-05T08:35:23.898Z,953.86
2016-07-05T08:36:23.774Z,953.85
2016-07-05T08:37:24.054Z,953.88
2016-07-05T08:38:23.786Z,953.9
2016-07-05T08:39:23.794Z,953.82
2016-07-05T08:40:23.888Z,953.89
2016-07-05T08:41:23.985Z,953.84
2016-07-05T08:42:23.931Z,953.79
2016-07-05T08:43:23.845Z,953.8
2016-07-05T08:44:23.968Z,953.81
2016-07-05T08:45:24.042Z,953.81
2016-07-05T08:46:23.834Z,953.84
2016-07-05T08:47:23.946Z,953.8
2016-07-05T08:48:24.030Z,953.85
2016-07-05T08:49:24.000Z,953.76
2016-07-05T08:50:24.043Z,953.76
2016-07-05T08:51:23.853Z,953.75
2016-07-05T08:52:23.975Z,953.81
2016-07-05T08:53:23.861Z,953.81
2016-07-05T08:54:23.968Z,953.81
2016-07-05T08:55:23.993Z,953.79
2016-07-05T08:56:23.877Z,953.77
2016-07-05T08:57:23.883Z,953.78
2016-07-05T08:58:23.882Z,953.81
2016-07-05T08:59:24.075Z,953.83
2016-07-05T09:00:23.993Z,953.84
2016-07-05T09:01:23.895Z,953.8
2016-07-05T09:02:23.899Z,953.84
2016-07-05T09:03:24.127Z,953.89
2016-07-05T09:04:24.002Z,953.88
2016-07-05T09:05:24.019Z,953.82
2016-07-05T09:06:23.915Z,953.84
2016-07-05T09:07:24.030Z,953.83
2016-07-05T09:08:23.919Z,953.89
2016-07-05T09:09:24.024Z,953.8
2016-07-05T09:10:24.026Z,953.8
2016-07-05T09:11:24.110Z,953.76
2016-07-05T09:12:24.035Z,953.79
2016-07-05T09:13:23.932Z,953.75
2016-07-05T09:14:24.038Z,953.78
2016-07-05T09:15:24.071Z,953.76
2016-07-05T09:16:23.951Z,953.82
2016-07-05T09:17:23.975Z,953.75
2016-07-05T09:18:24.064Z,953.74
2016-07-05T09:19:23.951Z,953.71
2016-07-05T09:20:23.958Z,953.7
2016-07-05T09:21:23.964Z,953.73
2016-07-05T09:22:23.970Z,953.72
2016-07-05T09:23:24.740Z,953.65
2016-07-05T09:24:24.172Z,953.71
2016-07-05T09:25:24.064Z,953.75
2016-07-05T09:26:23.969Z,953.71
2016-07-05T09:27:24.083Z,953.73
2016-07-05T09:28:24.088Z,953.84
2016-07-05T09:29:24.783Z,953.82
2016-07-05T09:30:24.088Z,953.81
2016-07-05T09:31:24.085Z,953.72
2016-07-05T09:32:23.996Z,953.74
2016-07-05T09:33:24.003Z,953.77
2016-07-05T09:34:24.102Z,953.79
2016-07-05T09:35:24.307Z,953.81
2016-07-05T09:36:23.997Z,953.86
2016-07-05T09:37:24.099Z,953.86
2016-07-05T09:38:24.192Z,953.77
2016-07-05T09:39:24.002Z,953.72
2016-07-05T09:40:24.018Z,953.76
2016-07-05T09:41:24.136Z,953.69
2016-07-05T09:42:24.015Z,953.72
2016-07-05T09:43:24.122Z,953.83
2016-07-05T09:44:24.218Z,953.72
2016-07-05T09:45:24.220Z,953.78
2016-07-05T09:46:24.029Z,953.74
2016-07-05T09:47:24.243Z,953.8
2016-07-05T09:48:24.245Z,953.71
2016-07-05T09:49:24.141Z,953.69
2016-07-05T09:50:24.266Z,953.74
2016-07-05T09:51:24.144Z,953.69
2016-07-05T09:52:24.043Z,953.72
2016-07-05T09:53:24.052Z,953.82
2016-07-05T09:54:24.151Z,953.8
2016-07-05T09:55:24.245Z,953.81
2016-07-05T09:56:24.062Z,953.81
2016-07-05T09:57:24.168Z,953.84
2016-07-05T09:58:24.258Z,953.77
2016-07-05T09:59:24.186Z,953.76
2016-07-05T10:00:24.178Z,953.78
2016-07-05T10:01:24.195Z,953.73
2016-07-05T10:02:24.206Z,953.75
2016-07-05T10:03:24.281Z,953.78
2016-07-05T10:04:24.209Z,953.7
2016-07-05T10:05:24.271Z,953.7
2016-07-05T10:06:24.089Z,953.76
2016-07-05T10:07:24.205Z,953.74
2016-07-05T10:08:24.100Z,953.79
2016-07-05T10:09:24.303Z,953.78
2016-07-05T10:10:24.346Z,953.8
2016-07-05T10:11:24.104Z,953.7
2016-07-05T10:12:24.204Z,953.77
2016-07-05T10:13:24.226Z,953.69
2016-07-05T10:14:24.300Z,953.73
2016-07-05T10:15:24.223Z,953.75
2016-07-05T10:16:24.106Z,953.8
2016-07-05T10:17:24.210Z,953.85
2016-07-05T10:18:24.119Z,953.82
2016-07-05T10:19:24.232Z,953.77
2016-07-05T10:20:24.232Z,953.81
2016-07-05T10:21:24.229Z,953.74
2016-07-05T10:22:24.133Z,953.81
2016-07-05T10:23:24.132Z,953.79
2016-07-05T10:24:24.236Z,953.76
2016-07-05T10:25:24.137Z,953.7
2016-07-05T10:26:24.133Z,953.83
2016-07-05T10:27:24.315Z,953.83
2016-07-05T10:28:24.130Z,953.86
2016-07-05T10:29:24.256Z,953.81
2016-07-05T10:30:24.134Z,953.77
2016-07-05T10:31:24.144Z,953.79
2016-07-05T10:32:24.261Z,953.72
2016-07-05T10:33:24.154Z,953.7
2016-07-05T10:34:24.264Z,953.72
2016-07-05T10:35:24.252Z,953.84
2016-07-05T10:36:24.153Z,953.71
2016-07-05T10:37:24.160Z,953.7
2016-07-05T10:38:24.272Z,953.73
2016-07-05T10:39:24.146Z,953.72
2016-07-05T10:40:24.260Z,953.76
2016-07-05T10:41:24.355Z,953.73
2016-07-05T10:42:24.358Z,953.81
2016-07-05T10:43:24.168Z,953.73
2016-07-05T10:44:24.174Z,953.74
2016-07-05T10:45:24.288Z,953.72
2016-07-05T10:46:24.167Z,953.61
2016-07-05T10:47:24.279Z,953.63
2016-07-05T10:48:24.268Z,953.66
2016-07-05T10:49:24.176Z,953.63
2016-07-05T10:50:24.367Z,953.65
2016-07-05T10:51:24.456Z,953.6
2016-07-05T10:52:24.412Z,953.56
2016-07-05T10:53:24.384Z,953.62
2016-07-05T10:54:24.372Z,953.59
2016-07-05T10:55:24.199Z,953.55
2016-07-05T10:56:24.194Z,953.71
2016-07-05T10:57:24.196Z,953.59
2016-07-05T10:58:24.195Z,953.69
2016-07-05T10:59:24.297Z,953.7
2016-07-05T11:00:24.321Z,953.69
2016-07-05T11:01:24.203Z,953.66
2016-07-05T11:02:24.308Z,953.67
2016-07-05T11:03:24.325Z,953.63
2016-07-05T11:04:24.218Z,953.69
2016-07-05T11:05:24.215Z,953.72
2016-07-05T11:06:24.217Z,953.68
2016-07-05T11:07:24.316Z,953.71
2016-07-05T11:08:24.426Z,953.69
2016-07-05T11:09:24.423Z,953.65
2016-07-05T11:10:24.329Z,953.7
2016-07-05T11:11:24.344Z,953.68
2016-07-05T11:12:24.324Z,953.69
2016-07-05T11:13:24.412Z,953.69
2016-07-05T11:14:24.334Z,953.72
2016-07-05T11:15:24.352Z,953.68
2016-07-05T11:16:24.236Z,953.67
2016-07-05T11:17:24.346Z,953.73
2016-07-05T11:18:24.342Z,953.7
2016-07-05T11:19:24.338Z,953.67
2016-07-05T11:20:24.348Z,953.66
2016-07-05T11:21:24.347Z,953.73
2016-07-05T11:22:24.350Z,953.71
2016-07-05T11:23:24.368Z,953.66
2016-07-05T11:24:24.370Z,953.67
2016-07-05T11:25:24.436Z,953.68
2016-07-05T11:26:24.261Z,953.63
2016-07-05T11:27:24.458Z,953.64
2016-07-05T11:28:24.261Z,953.59
2016-07-05T11:29:24.359Z,953.6
2016-07-05T11:30:24.460Z,953.59
2016-07-05T11:31:24.458Z,953.63
2016-07-05T11:32:24.375Z,953.55
2016-07-05T11:33:24.296Z,953.55
2016-07-05T11:34:24.274Z,953.53
2016-07-05T11:35:24.374Z,953.56
2016-07-05T11:36:24.276Z,953.51
2016-07-05T11:37:24.382Z,953.57
2016-07-05T11:38:24.393Z,953.51
2016-07-05T11:39:24.288Z,953.48
2016-07-05T11:40:24.411Z,953.43
2016-07-05T11:41:24.491Z,953.45
2016-07-05T11:42:24.398Z,953.34
2016-07-05T11:43:24.408Z,953.38
2016-07-05T11:44:24.412Z,953.34
2016-07-05T11:45:24.427Z,953.35
2016-07-05T11:46:24.312Z,953.39
2016-07-05T11:47:24.322Z,953.44
2016-07-05T11:48:24.324Z,953.38
2016-07-05T11:49:24.513Z,953.32
2016-07-05T11:50:24.441Z,953.46
2016-07-05T11:51:24.421Z,953.28
2016-07-05T11:52:24.471Z,953.34
2016-07-05T11:53:24.428Z,953.32
2016-07-05T11:54:24.445Z,953.33
2016-07-05T11:55:24.524Z,953.25
2016-07-05T11:56:24.336Z,953.36
2016-07-05T11:57:24.539Z,953.29
2016-07-05T11:58:24.444Z,953.28
2016-07-05T11:59:24.462Z,953.38
2016-07-05T12:00:24.358Z,953.33
2016-07-05T12:01:24.462Z,953.39
2016-07-05T12:02:24.356Z,953.32
2016-07-05T12:03:24.557Z,953.29
2016-07-05T12:04:24.476Z,953.33
2016-07-05T12:05:24.370Z,953.32
2016-07-05T12:06:24.364Z,953.28
2016-07-05T12:07:24.488Z,953.26
2016-07-05T12:08:24.476Z,953.24
2016-07-05T12:09:24.490Z,953.29
2016-07-05T12:10:24.569Z,953.26
2016-07-05T12:11:24.579Z,953.25
2016-07-05T12:12:24.383Z,953.18
2016-07-05T12:13:24.501Z,953.18
2016-07-05T12:14:24.391Z,953.13
2016-07-05T12:15:24.391Z,953.15
2016-07-05T12:16:24.388Z,953.1
2016-07-05T12:17:24.392Z,953.1
2016-07-05T12:18:24.392Z,953.09
2016-07-05T12:19:24.391Z,953.04
2016-07-05T12:20:24.508Z,953.08
2016-07-05T12:21:24.400Z,953.08
2016-07-05T12:22:24.436Z,952.94
2016-07-05T12:23:24.512Z,952.98
2016-07-05T12:24:24.409Z,953.15
2016-07-05T12:25:24.418Z,953.11
2016-07-05T12:26:24.416Z,953.14
2016-07-05T12:27:24.534Z,953.1
2016-07-05T12:28:24.520Z,953.09
2016-07-05T12:29:24.540Z,953.04
2016-07-05T12:30:24.534Z,953.04
2016-07-05T12:31:24.537Z,953.07
2016-07-05T12:32:24.532Z,953.11
2016-07-05T12:33:24.543Z,953.02